createdAt,value
2023-04-23T00:00:37.033Z,82.74
2023-04-23T00:03:46.577Z,81.25
2023-04-23T00:07:03.038Z,79.55
2023-04-23T00:10:13.356Z,81.59
2023-04-23T00:13:22.050Z,83.35
2023-04-23T00:16:30.960Z,83.35
2023-04-23T00:19:39.051Z,83.28
2023-04-23T00:22:47.788Z,82.69
2023-04-23T00:25:56.035Z,82.58
2023-04-23T00:29:18.005Z,83.46
2023-04-23T00:32:33.047Z,83.00
2023-04-23T00:35:41.577Z,82.83
2023-04-23T00:38:50.035Z,82.60
2023-04-23T00:41:58.983Z,83.40
2023-04-23T00:45:08.087Z,84.45
2023-04-23T00:48:16.910Z,84.46
2023-04-23T00:51:33.089Z,84.55
2023-04-23T00:54:41.851Z,83.85
2023-04-23T00:57:57.038Z,84.55
2023-04-23T01:01:06.055Z,84.62
2023-04-23T01:04:19.240Z,85.23
2023-04-23T01:07:28.030Z,85.11
2023-04-23T01:10:37.564Z,85.68
2023-04-23T01:13:52.028Z,85.45
2023-04-23T01:16:54.074Z,85.01
2023-04-23T01:20:10.058Z,86.17
2023-04-23T01:23:19.066Z,86.28
2023-04-23T01:26:27.978Z,86.71
2023-04-23T01:29:45.040Z,86.93
2023-04-23T01:32:48.543Z,87.58
2023-04-23T01:36:04.063Z,87.86
2023-04-23T01:39:12.698Z,88.36
2023-04-23T01:46:18.094Z,88.27
2023-04-23T01:49:33.060Z,88.49
2023-04-23T01:52:42.072Z,89.05
2023-04-23T01:55:58.050Z,88.60
2023-04-23T01:59:06.049Z,88.76
2023-04-23T02:02:14.598Z,88.48
2023-04-23T02:05:31.046Z,89.14
2023-04-23T02:08:40.432Z,89.01
2023-04-23T02:11:49.069Z,88.94
2023-04-23T02:14:57.622Z,89.89
2023-04-23T02:18:12.038Z,88.85
2023-04-23T02:21:21.053Z,89.27
2023-04-23T02:24:29.682Z,89.58
2023-04-23T02:27:44.033Z,89.66
2023-04-23T02:31:06.049Z,90.17
2023-04-23T02:34:14.031Z,89.19
2023-04-23T02:37:22.576Z,89.11
2023-04-23T02:40:37.021Z,89.56
2023-04-23T02:43:39.077Z,90.69
2023-04-23T02:46:54.073Z,91.00
2023-04-23T02:49:55.993Z,91.63
2023-04-23T02:53:12.048Z,91.88
2023-04-23T02:56:27.062Z,92.03
2023-04-23T02:59:29.137Z,92.24
2023-04-23T03:02:44.185Z,92.86
2023-04-23T03:05:59.035Z,93.85
2023-04-23T03:09:14.055Z,93.78
2023-04-23T03:12:15.967Z,94.30
2023-04-23T03:15:33.059Z,94.32
2023-04-23T03:18:41.650Z,93.76
2023-04-23T03:21:50.040Z,94.04
2023-04-23T03:25:05.040Z,94.26
2023-04-23T03:28:06.935Z,93.74
2023-04-23T03:31:29.048Z,93.43
2023-04-23T03:34:37.677Z,93.39
2023-04-23T03:37:46.044Z,93.49
2023-04-23T03:41:01.059Z,93.36
2023-04-23T03:44:03.279Z,94.11
2023-04-23T03:47:18.177Z,94.62
2023-04-23T03:50:20.389Z,95.01
2023-04-23T03:53:35.054Z,95.10
2023-04-23T03:56:43.619Z,95.57
2023-04-23T03:59:52.060Z,95.91
2023-04-23T04:03:07.275Z,96.35
2023-04-23T04:06:22.072Z,96.57
2023-04-23T04:09:37.059Z,97.09
2023-04-23T04:12:52.054Z,96.99
2023-04-23T04:16:00.685Z,97.18
2023-04-23T04:19:10.263Z,97.61
2023-04-23T04:22:18.702Z,97.57
2023-04-23T04:25:27.053Z,97.41
2023-04-23T04:28:42.059Z,98.01
2023-04-23T04:31:50.080Z,98.33
2023-04-23T04:35:05.028Z,97.77
2023-04-23T04:38:13.648Z,98.16
2023-04-23T04:41:22.042Z,98.17
2023-04-23T04:44:31.039Z,97.80
2023-04-23T04:47:39.072Z,97.19
2023-04-23T04:51:00.045Z,97.07
2023-04-23T04:54:09.023Z,98.23
2023-04-23T04:57:24.030Z,97.66
2023-04-23T05:00:32.670Z,97.49
2023-04-23T05:03:47.142Z,96.47
2023-04-23T05:06:55.659Z,96.66
2023-04-23T05:10:10.044Z,94.57
2023-04-23T05:13:12.191Z,91.25
2023-04-23T05:16:27.072Z,87.79
2023-04-23T05:19:42.065Z,87.77
2023-04-23T05:22:44.206Z,85.41
2023-04-23T05:25:59.068Z,82.23
2023-04-23T05:29:08.047Z,80.26
2023-04-23T05:32:30.088Z,82.44
2023-04-23T05:35:41.366Z,82.13
2023-04-23T05:38:56.092Z,78.74
2023-04-23T05:42:04.812Z,80.70
2023-04-23T05:45:14.041Z,79.15
2023-04-23T05:48:29.038Z,79.14
2023-04-23T05:51:38.075Z,75.94
2023-04-23T05:54:46.589Z,76.64
2023-04-23T05:57:55.062Z,75.27
2023-04-23T06:01:10.026Z,77.05
2023-04-23T06:04:12.345Z,74.75
2023-04-23T06:07:27.018Z,72.91
2023-04-23T06:10:28.993Z,72.50
2023-04-23T06:13:44.157Z,67.37
2023-04-23T06:16:53.057Z,68.29
2023-04-23T06:20:10.051Z,69.28
2023-04-23T06:23:25.031Z,68.45
2023-04-23T06:26:34.078Z,65.68
2023-04-23T06:29:56.121Z,67.20
2023-04-23T06:33:11.022Z,68.05
2023-04-23T06:36:19.606Z,65.97
2023-04-23T06:39:34.064Z,62.25
2023-04-23T06:42:36.052Z,61.22
2023-04-23T06:45:51.047Z,59.75
2023-04-23T06:48:59.711Z,58.15
2023-04-23T06:52:08.034Z,57.85
2023-04-23T06:55:23.052Z,57.79
2023-04-23T06:58:25.151Z,55.58
2023-04-23T07:01:42.043Z,56.67
2023-04-23T07:04:57.063Z,57.30
2023-04-23T07:07:59.138Z,54.70
2023-04-23T07:11:14.063Z,52.64
2023-04-23T07:14:22.909Z,51.79
2023-04-23T07:17:31.115Z,52.52
2023-04-23T07:20:40.582Z,48.09
2023-04-23T07:23:49.051Z,46.62
2023-04-23T07:27:04.039Z,48.46
2023-04-23T07:30:06.602Z,44.52
2023-04-23T07:33:21.066Z,45.01
2023-04-23T07:36:29.714Z,44.01
2023-04-23T07:39:45.195Z,43.72
2023-04-23T07:42:54.068Z,44.13
2023-04-23T07:46:09.112Z,42.93
2023-04-23T07:49:18.108Z,41.57
2023-04-23T07:52:26.671Z,41.71
2023-04-23T07:55:41.073Z,42.57
2023-04-23T07:58:43.089Z,40.60
2023-04-23T08:02:00.171Z,41.52
2023-04-23T08:05:02.645Z,38.93
2023-04-23T08:08:18.060Z,39.62
2023-04-23T08:11:26.086Z,38.29
2023-04-23T08:14:35.044Z,37.05
2023-04-23T08:17:50.130Z,36.51
2023-04-23T08:20:52.155Z,37.85
2023-04-23T08:24:07.068Z,37.20
2023-04-23T08:27:15.064Z,37.96
2023-04-23T08:30:30.078Z,38.42
2023-04-23T08:33:52.089Z,38.42
2023-04-23T08:37:01.070Z,36.95
2023-04-23T08:40:16.102Z,36.35
2023-04-23T08:43:21.115Z,38.50
2023-04-23T08:46:38.126Z,37.38
2023-04-23T08:49:48.055Z,37.44
2023-04-23T08:53:04.097Z,35.63
2023-04-23T08:56:20.091Z,34.92
2023-04-23T08:59:31.156Z,35.56
2023-04-23T09:02:54.282Z,34.27
2023-04-23T09:06:04.240Z,34.50
2023-04-23T09:09:17.123Z,36.11
2023-04-23T09:12:32.104Z,34.92
2023-04-23T09:15:41.493Z,32.78
2023-04-23T09:18:56.103Z,33.87
2023-04-23T09:22:04.760Z,32.80
2023-04-23T09:25:15.087Z,33.23
2023-04-23T09:28:44.119Z,33.35
2023-04-23T09:31:56.205Z,32.84
2023-04-23T09:35:13.090Z,32.90
2023-04-23T09:38:22.181Z,33.33
2023-04-23T09:41:38.574Z,34.24
2023-04-23T09:44:42.260Z,32.48
2023-04-23T09:48:00.236Z,32.62
2023-04-23T09:51:02.384Z,32.66
2023-04-23T09:54:25.125Z,31.66
2023-04-23T09:57:37.796Z,31.64
2023-04-23T10:00:53.127Z,31.83
2023-04-23T10:04:08.291Z,30.61
2023-04-23T10:07:18.884Z,29.43
2023-04-23T10:10:38.223Z,31.21
2023-04-23T10:13:53.991Z,28.67
2023-04-23T10:17:11.132Z,29.90
2023-04-23T10:20:22.917Z,27.44
2023-04-23T10:23:32.137Z,28.70
2023-04-23T10:26:49.170Z,27.44
2023-04-23T10:30:06.403Z,26.09
2023-04-23T10:33:30.831Z,25.99
2023-04-23T10:36:45.107Z,27.04
2023-04-23T10:40:20.100Z,27.64
2023-04-23T10:43:36.124Z,26.37
2023-04-23T10:46:54.947Z,27.71
2023-04-23T10:50:30.135Z,26.96
2023-04-23T10:53:32.440Z,27.87
2023-04-23T10:56:48.110Z,26.25
2023-04-23T10:59:56.752Z,27.45
2023-04-23T11:03:05.221Z,26.63
2023-04-23T11:06:26.101Z,26.89
2023-04-23T11:09:30.605Z,27.22
2023-04-23T11:12:46.126Z,27.49
2023-04-23T11:15:48.094Z,27.98
2023-04-23T11:19:04.121Z,27.35
2023-04-23T11:22:16.667Z,27.47
2023-04-23T11:25:33.102Z,27.18
2023-04-23T11:28:36.538Z,26.60
2023-04-23T11:32:01.355Z,27.13
2023-04-23T11:35:20.116Z,26.15
2023-04-23T11:38:39.110Z,27.84
2023-04-23T11:41:40.998Z,28.94
2023-04-23T11:44:56.114Z,28.86
2023-04-23T11:48:00.537Z,30.22
2023-04-23T11:51:15.165Z,31.59
2023-04-23T11:54:17.100Z,28.34
2023-04-23T11:57:32.126Z,28.06
2023-04-23T12:00:34.213Z,27.90
2023-04-23T12:03:55.278Z,28.60
2023-04-23T12:07:12.786Z,28.39
2023-04-23T12:10:29.132Z,26.89
2023-04-23T12:13:47.159Z,27.37
2023-04-23T12:17:02.105Z,29.63
2023-04-23T12:20:18.102Z,29.01
2023-04-23T12:23:26.476Z,27.30
2023-04-23T12:30:17.157Z,29.93
2023-04-23T12:33:29.462Z,29.83
2023-04-23T12:36:45.152Z,28.95
2023-04-23T12:39:54.026Z,27.42
2023-04-23T12:43:02.169Z,28.33
2023-04-23T12:46:17.130Z,27.82
2023-04-23T12:49:27.330Z,28.29
2023-04-23T12:52:36.114Z,28.04
2023-04-23T12:55:51.132Z,27.71
2023-04-23T12:59:00.181Z,27.52
2023-04-23T13:02:16.237Z,27.88
2023-04-23T13:05:24.750Z,28.15
2023-04-23T13:08:39.132Z,29.07
2023-04-23T13:11:48.203Z,28.33
2023-04-23T13:14:56.180Z,27.61
2023-04-23T13:18:12.152Z,28.99
2023-04-23T13:21:20.864Z,28.16
2023-04-23T13:24:29.142Z,29.11
2023-04-23T13:27:37.787Z,27.33
2023-04-23T13:30:46.133Z,28.99
2023-04-23T13:34:08.166Z,29.16
2023-04-23T13:37:23.143Z,28.86
2023-04-23T13:40:32.651Z,29.49
2023-04-23T13:43:41.148Z,29.33
2023-04-23T13:46:56.192Z,30.21
2023-04-23T13:50:12.192Z,28.64
2023-04-23T13:53:14.193Z,29.14
2023-04-23T13:56:29.132Z,29.19
2023-04-23T13:59:37.782Z,27.65
2023-04-23T14:02:52.229Z,27.84
2023-04-23T14:06:07.159Z,28.05
2023-04-23T14:09:15.776Z,28.19
2023-04-23T14:12:30.170Z,28.41
2023-04-23T14:15:45.235Z,29.11
2023-04-23T14:18:54.149Z,28.28
2023-04-23T14:22:10.141Z,28.87
2023-04-23T14:25:30.171Z,28.04
2023-04-23T14:28:53.179Z,29.93
2023-04-23T14:32:02.260Z,30.08
2023-04-23T14:35:17.156Z,28.05
2023-04-23T14:38:20.540Z,29.50
2023-04-23T14:41:35.149Z,28.61
2023-04-23T14:44:50.155Z,28.78
2023-04-23T14:47:59.278Z,30.37
2023-04-23T14:51:15.195Z,28.78
2023-04-23T14:54:24.202Z,29.16
2023-04-23T14:57:39.304Z,28.69
2023-04-23T15:00:55.153Z,29.68
2023-04-23T15:04:04.270Z,29.46
2023-04-23T15:07:12.739Z,29.60
2023-04-23T15:10:27.235Z,30.18
2023-04-23T15:13:42.167Z,29.31
2023-04-23T15:16:48.234Z,30.72
2023-04-23T15:20:05.164Z,30.20
2023-04-23T15:23:13.749Z,30.00
2023-04-23T15:26:22.182Z,31.94
2023-04-23T15:29:37.232Z,32.16
2023-04-23T15:33:00.288Z,31.84
2023-04-23T15:36:15.214Z,31.53
2023-04-23T15:39:30.197Z,31.27
2023-04-23T15:42:39.210Z,31.66
2023-04-23T15:45:54.209Z,33.59
2023-04-23T15:49:03.189Z,31.46
2023-04-23T15:52:18.598Z,31.64
2023-04-23T15:55:34.216Z,32.38
2023-04-23T15:58:43.451Z,31.67
2023-04-23T16:01:51.956Z,31.56
2023-04-23T16:05:00.398Z,31.91
2023-04-23T16:08:09.215Z,33.07
2023-04-23T16:11:24.413Z,33.67
2023-04-23T16:14:32.821Z,32.27
2023-04-23T16:17:47.425Z,32.55
2023-04-23T16:21:02.595Z,31.94
2023-04-23T16:24:05.170Z,32.46
2023-04-23T16:27:20.554Z,33.50
2023-04-23T16:30:23.552Z,32.49
2023-04-23T16:33:45.401Z,33.51
2023-04-23T16:37:01.087Z,34.50
2023-04-23T16:40:10.250Z,33.25
2023-04-23T16:43:19.196Z,35.21
2023-04-23T16:46:34.304Z,36.25
2023-04-23T16:49:43.758Z,35.48
2023-04-23T16:52:52.609Z,35.75
2023-04-23T16:56:11.996Z,36.81
2023-04-23T16:59:21.580Z,37.30
2023-04-23T17:02:36.347Z,37.69
2023-04-23T17:05:46.223Z,37.47
2023-04-23T17:08:56.418Z,38.25
2023-04-23T17:12:11.183Z,39.16
2023-04-23T17:15:19.651Z,39.04
2023-04-23T17:18:35.254Z,38.36
2023-04-23T17:21:44.395Z,39.88
2023-04-23T17:24:53.287Z,40.46
2023-04-23T17:28:08.219Z,41.25
2023-04-23T17:31:24.244Z,42.00
2023-04-23T17:34:43.308Z,41.49
2023-04-23T17:37:58.558Z,41.88
2023-04-23T17:41:13.215Z,42.13
2023-04-23T17:44:22.696Z,42.95
2023-04-23T17:47:32.725Z,43.42
2023-04-23T17:50:41.681Z,42.91
2023-04-23T17:53:58.279Z,44.24
2023-04-23T17:57:08.224Z,44.01
2023-04-23T18:00:24.673Z,45.27
2023-04-23T18:03:27.830Z,47.06
2023-04-23T18:06:46.724Z,46.70
2023-04-23T18:09:56.295Z,46.61
2023-04-23T18:13:05.947Z,47.90
2023-04-23T18:16:21.596Z,47.66
2023-04-23T18:19:36.752Z,48.82
2023-04-23T18:22:46.479Z,49.30
2023-04-23T18:25:55.566Z,48.80
2023-04-23T18:29:10.214Z,49.36
2023-04-23T18:32:34.558Z,48.61
2023-04-23T18:35:49.642Z,48.63
2023-04-23T18:39:06.703Z,47.90
2023-04-23T18:42:21.220Z,46.77
2023-04-23T18:45:30.452Z,45.94
2023-04-23T18:48:42.770Z,46.81
2023-04-23T18:51:52.653Z,47.23
2023-04-23T18:55:01.749Z,47.00
2023-04-23T18:58:10.920Z,46.84
2023-04-23T19:01:20.862Z,46.38
2023-04-23T19:04:40.974Z,45.50
2023-04-23T19:07:50.607Z,45.32
2023-04-23T19:11:05.238Z,44.82
2023-04-23T19:14:09.653Z,45.18
2023-04-23T19:17:24.715Z,44.88
2023-04-23T19:20:42.738Z,44.95
2023-04-23T19:23:51.782Z,44.75
2023-04-23T19:27:06.611Z,45.89
2023-04-23T19:30:24.307Z,45.71
2023-04-23T19:33:26.739Z,46.53
2023-04-23T19:36:52.674Z,46.03
2023-04-23T19:40:01.357Z,45.28
2023-04-23T19:43:12.167Z,46.24
2023-04-23T19:46:28.637Z,46.64
2023-04-23T19:49:31.374Z,46.67
2023-04-23T19:52:46.518Z,46.94
2023-04-23T19:55:55.061Z,46.47
2023-04-23T19:59:10.326Z,47.00
2023-04-23T20:02:19.661Z,47.53
2023-04-23T20:05:28.053Z,48.42
2023-04-23T20:08:44.130Z,49.03
2023-04-23T20:11:53.248Z,49.03
2023-04-23T20:15:02.056Z,49.11
2023-04-23T20:18:10.572Z,49.55
2023-04-23T20:21:25.281Z,49.38
2023-04-23T20:24:40.637Z,49.39
2023-04-23T20:27:48.931Z,50.08
2023-04-23T20:30:57.642Z,50.58
2023-04-23T20:34:19.226Z,50.85
2023-04-23T20:37:28.058Z,50.95
2023-04-23T20:40:43.272Z,50.07
2023-04-23T20:43:52.261Z,51.21
2023-04-23T20:47:00.930Z,50.84
2023-04-23T20:50:09.280Z,50.22
2023-04-23T20:53:18.698Z,50.83
2023-04-23T20:56:27.254Z,50.81
2023-04-23T20:59:42.407Z,50.69
2023-04-23T21:02:59.415Z,50.28
2023-04-23T21:06:08.233Z,50.72
2023-04-23T21:09:16.950Z,51.00
2023-04-23T21:12:32.237Z,49.99
2023-04-23T21:15:47.279Z,50.62
2023-04-23T21:18:55.928Z,52.04
2023-04-23T21:22:11.241Z,52.03
2023-04-23T21:25:19.998Z,50.91
2023-04-23T21:28:28.262Z,52.32
2023-04-23T21:31:53.349Z,51.69
2023-04-23T21:35:08.233Z,51.65
2023-04-23T21:38:17.237Z,52.48
2023-04-23T21:41:25.914Z,52.96
2023-04-23T21:44:43.244Z,53.01
2023-04-23T21:47:51.327Z,53.60
2023-04-23T21:50:59.930Z,53.71
2023-04-23T21:54:16.254Z,53.58
2023-04-23T21:57:24.828Z,54.34
2023-04-23T22:00:39.288Z,54.04
2023-04-23T22:03:47.449Z,54.43
2023-04-23T22:06:57.159Z,54.53
2023-04-23T22:10:14.243Z,55.06
2023-04-23T22:13:16.352Z,54.96
2023-04-23T22:16:31.361Z,54.56
2023-04-23T22:19:40.522Z,55.25
2023-04-23T22:22:49.370Z,54.51
2023-04-23T22:26:04.265Z,55.42
2023-04-23T22:29:06.458Z,55.51
2023-04-23T22:32:21.277Z,56.57
2023-04-23T22:35:43.249Z,55.69
2023-04-23T22:38:52.260Z,55.94
2023-04-23T22:42:07.247Z,55.69
2023-04-23T22:45:09.369Z,55.91
2023-04-23T22:48:24.246Z,56.28
2023-04-23T22:51:32.233Z,56.94
2023-04-23T22:54:48.239Z,57.99
2023-04-23T22:57:57.226Z,57.66
2023-04-23T23:01:12.346Z,58.41
2023-04-23T23:04:27.319Z,58.31
2023-04-23T23:07:29.196Z,59.08
2023-04-23T23:10:45.252Z,59.42
2023-04-23T23:14:00.250Z,59.83
2023-04-23T23:17:08.941Z,60.14
2023-04-23T23:20:17.282Z,60.49
2023-04-23T23:23:26.476Z,60.56
2023-04-23T23:26:35.261Z,61.49
2023-04-23T23:29:44.371Z,62.27
2023-04-23T23:32:59.298Z,62.59
2023-04-23T23:36:08.254Z,62.13
2023-04-23T23:39:16.261Z,62.88
2023-04-23T23:42:24.905Z,63.12
2023-04-23T23:45:40.276Z,64.13
2023-04-23T23:48:48.952Z,63.93
2023-04-23T23:51:57.264Z,64.18
2023-04-23T23:55:06.334Z,63.44
2023-04-23T23:58:21.304Z,64.35
